sensor_id;sensor_type;location;lat;lon;timestamp;temperature;humidity
31271;DHT22;17904;47.420;9.310;2022-10-16T00:01:13;12.80;99.90
31271;DHT22;17904;47.420;9.310;2022-10-16T00:03:42;12.80;99.90
31271;DHT22;17904;47.420;9.310;2022-10-16T00:06:10;12.80;99.90
31271;DHT22;17904;47.420;9.310;2022-10-16T00:08:37;12.80;99.90
31271;DHT22;17904;47.420;9.310;2022-10-16T00:11:13;12.80;99.90
31271;DHT22;17904;47.420;9.310;2022-10-16T00:13:43;12.80;99.90
31271;DHT22;17904;47.420;9.310;2022-10-16T00:16:10;12.90;99.90
31271;DHT22;17904;47.420;9.310;2022-10-16T00:18:37;12.90;99.90
31271;DHT22;17904;47.420;9.310;2022-10-16T00:21:11;12.90;99.90
31271;DHT22;17904;47.420;9.310;2022-10-16T00:23:38;12.90;99.90
31271;DHT22;17904;47.420;9.310;2022-10-16T00:26:09;13.00;99.90
31271;DHT22;17904;47.420;9.310;2022-10-16T00:28:37;13.00;99.90
31271;DHT22;17904;47.420;9.310;2022-10-16T00:31:09;13.00;99.90
31271;DHT22;17904;47.420;9.310;2022-10-16T00:33:38;13.00;99.90
31271;DHT22;17904;47.420;9.310;2022-10-16T00:36:06;13.10;99.90
31271;DHT22;17904;47.420;9.310;2022-10-16T00:38:33;13.10;99.90
31271;DHT22;17904;47.420;9.310;2022-10-16T00:41:00;13.10;99.90
31271;DHT22;17904;47.420;9.310;2022-10-16T00:46:07;13.10;99.90
31271;DHT22;17904;47.420;9.310;2022-10-16T00:48:35;13.10;99.90
31271;DHT22;17904;47.420;9.310;2022-10-16T00:51:02;13.10;99.90
31271;DHT22;17904;47.420;9.310;2022-10-16T00:53:30;13.00;99.90
31271;DHT22;17904;47.420;9.310;2022-10-16T00:55:57;13.00;99.90
31271;DHT22;17904;47.420;9.310;2022-10-16T00:58:24;13.00;99.90
31271;DHT22;17904;47.420;9.310;2022-10-16T01:00:51;13.00;99.90
31271;DHT22;17904;47.420;9.310;2022-10-16T01:03:22;12.90;99.90
31271;DHT22;17904;47.420;9.310;2022-10-16T01:06:29;12.90;99.90
31271;DHT22;17904;47.420;9.310;2022-10-16T01:14:55;12.90;99.90
31271;DHT22;17904;47.420;9.310;2022-10-16T01:18:02;13.00;99.90
31271;DHT22;17904;47.420;9.310;2022-10-16T01:20:33;13.00;99.90
31271;DHT22;17904;47.420;9.310;2022-10-16T01:28:56;13.10;99.90
31271;DHT22;17904;47.420;9.310;2022-10-16T01:31:26;13.10;99.90
31271;DHT22;17904;47.420;9.310;2022-10-16T01:34:03;13.20;99.90
31271;DHT22;17904;47.420;9.310;2022-10-16T01:36:38;13.20;99.90
31271;DHT22;17904;47.420;9.310;2022-10-16T01:39:08;13.20;99.90
31271;DHT22;17904;47.420;9.310;2022-10-16T01:41:41;13.20;99.90
31271;DHT22;17904;47.420;9.310;2022-10-16T01:44:22;13.30;99.90
31271;DHT22;17904;47.420;9.310;2022-10-16T01:46:51;13.30;99.90
31271;DHT22;17904;47.420;9.310;2022-10-16T01:49:20;13.30;99.90
31271;DHT22;17904;47.420;9.310;2022-10-16T01:51:51;13.30;99.90
31271;DHT22;17904;47.420;9.310;2022-10-16T01:54:20;13.30;99.90
31271;DHT22;17904;47.420;9.310;2022-10-16T01:56:49;13.30;99.90
31271;DHT22;17904;47.420;9.310;2022-10-16T01:59:20;13.30;99.90
31271;DHT22;17904;47.420;9.310;2022-10-16T02:01:52;13.30;99.90
31271;DHT22;17904;47.420;9.310;2022-10-16T02:04:49;13.30;99.90
31271;DHT22;17904;47.420;9.310;2022-10-16T02:07:16;13.30;99.90
31271;DHT22;17904;47.420;9.310;2022-10-16T02:09:43;13.30;99.90
31271;DHT22;17904;47.420;9.310;2022-10-16T02:12:41;13.30;99.90
31271;DHT22;17904;47.420;9.310;2022-10-16T02:15:09;13.30;99.90
31271;DHT22;17904;47.420;9.310;2022-10-16T02:17:36;13.30;99.90
31271;DHT22;17904;47.420;9.310;2022-10-16T02:20:03;13.20;99.90
31271;DHT22;17904;47.420;9.310;2022-10-16T02:22:35;13.20;99.90
31271;DHT22;17904;47.420;9.310;2022-10-16T02:25:17;13.20;99.90
31271;DHT22;17904;47.420;9.310;2022-10-16T02:28:14;13.20;99.90
31271;DHT22;17904;47.420;9.310;2022-10-16T02:30:48;13.20;99.90
31271;DHT22;17904;47.420;9.310;2022-10-16T02:33:19;13.20;99.90
31271;DHT22;17904;47.420;9.310;2022-10-16T02:35:49;13.20;99.90
31271;DHT22;17904;47.420;9.310;2022-10-16T02:38:18;13.20;99.90
31271;DHT22;17904;47.420;9.310;2022-10-16T02:40:45;13.10;99.90
31271;DHT22;17904;47.420;9.310;2022-10-16T02:43:13;13.10;99.90
31271;DHT22;17904;47.420;9.310;2022-10-16T02:45:39;13.10;99.90
31271;DHT22;17904;47.420;9.310;2022-10-16T02:48:06;13.00;99.90
31271;DHT22;17904;47.420;9.310;2022-10-16T02:50:33;13.00;99.90
31271;DHT22;17904;47.420;9.310;2022-10-16T02:53:00;13.00;99.90
31271;DHT22;17904;47.420;9.310;2022-10-16T02:55:27;12.90;99.90
31271;DHT22;17904;47.420;9.310;2022-10-16T02:57:54;12.90;99.90
31271;DHT22;17904;47.420;9.310;2022-10-16T03:00:21;12.90;99.90
31271;DHT22;17904;47.420;9.310;2022-10-16T03:02:48;12.80;99.90
31271;DHT22;17904;47.420;9.310;2022-10-16T03:05:15;12.80;99.90
31271;DHT22;17904;47.420;9.310;2022-10-16T03:07:42;12.80;99.90
31271;DHT22;17904;47.420;9.310;2022-10-16T03:10:09;12.70;99.90
31271;DHT22;17904;47.420;9.310;2022-10-16T03:12:36;12.70;99.90
31271;DHT22;17904;47.420;9.310;2022-10-16T03:15:03;12.60;99.90
31271;DHT22;17904;47.420;9.310;2022-10-16T03:17:31;12.60;99.90
31271;DHT22;17904;47.420;9.310;2022-10-16T03:19:58;12.50;99.90
31271;DHT22;17904;47.420;9.310;2022-10-16T03:22:25;12.50;99.90
31271;DHT22;17904;47.420;9.310;2022-10-16T03:24:52;12.50;99.90
31271;DHT22;17904;47.420;9.310;2022-10-16T03:27:18;12.40;99.90
31271;DHT22;17904;47.420;9.310;2022-10-16T03:29:45;12.40;99.90
31271;DHT22;17904;47.420;9.310;2022-10-16T03:32:12;12.30;99.90
31271;DHT22;17904;47.420;9.310;2022-10-16T03:34:38;12.30;99.90
31271;DHT22;17904;47.420;9.310;2022-10-16T03:37:05;12.30;99.90
31271;DHT22;17904;47.420;9.310;2022-10-16T03:39:32;12.30;99.90
31271;DHT22;17904;47.420;9.310;2022-10-16T03:41:59;12.30;99.90
31271;DHT22;17904;47.420;9.310;2022-10-16T03:44:25;12.30;99.90
31271;DHT22;17904;47.420;9.310;2022-10-16T03:46:52;12.30;99.90
31271;DHT22;17904;47.420;9.310;2022-10-16T03:49:19;12.30;99.90
31271;DHT22;17904;47.420;9.310;2022-10-16T03:51:45;12.20;99.90
31271;DHT22;17904;47.420;9.310;2022-10-16T03:54:12;12.20;99.90
31271;DHT22;17904;47.420;9.310;2022-10-16T03:56:39;12.20;99.90
31271;DHT22;17904;47.420;9.310;2022-10-16T03:59:06;12.10;99.90
31271;DHT22;17904;47.420;9.310;2022-10-16T04:01:32;12.10;99.90
31271;DHT22;17904;47.420;9.310;2022-10-16T04:03:59;12.10;99.90
31271;DHT22;17904;47.420;9.310;2022-10-16T04:06:26;12.10;99.90
31271;DHT22;17904;47.420;9.310;2022-10-16T04:08:53;12.10;99.90
31271;DHT22;17904;47.420;9.310;2022-10-16T04:11:19;12.00;99.90
31271;DHT22;17904;47.420;9.310;2022-10-16T04:13:46;12.00;99.90
31271;DHT22;17904;47.420;9.310;2022-10-16T04:16:13;12.00;99.90
31271;DHT22;17904;47.420;9.310;2022-10-16T04:18:39;12.00;99.90
31271;DHT22;17904;47.420;9.310;2022-10-16T04:21:07;12.10;99.90
31271;DHT22;17904;47.420;9.310;2022-10-16T04:23:34;12.10;99.90
31271;DHT22;17904;47.420;9.310;2022-10-16T04:26:01;12.00;99.90
31271;DHT22;17904;47.420;9.310;2022-10-16T04:28:28;12.00;99.90
31271;DHT22;17904;47.420;9.310;2022-10-16T04:30:55;12.00;99.90
31271;DHT22;17904;47.420;9.310;2022-10-16T04:33:21;12.00;99.90
31271;DHT22;17904;47.420;9.310;2022-10-16T04:35:48;12.00;99.90
31271;DHT22;17904;47.420;9.310;2022-10-16T04:38:22;12.00;99.90
31271;DHT22;17904;47.420;9.310;2022-10-16T04:40:48;12.00;99.90
31271;DHT22;17904;47.420;9.310;2022-10-16T04:43:15;12.00;99.90
31271;DHT22;17904;47.420;9.310;2022-10-16T04:45:42;12.00;99.90
31271;DHT22;17904;47.420;9.310;2022-10-16T04:48:08;12.00;99.90
31271;DHT22;17904;47.420;9.310;2022-10-16T04:50:35;11.90;99.90
31271;DHT22;17904;47.420;9.310;2022-10-16T04:53:06;11.90;99.90
31271;DHT22;17904;47.420;9.310;2022-10-16T04:55:33;11.80;99.90
31271;DHT22;17904;47.420;9.310;2022-10-16T04:57:59;11.80;99.90
31271;DHT22;17904;47.420;9.310;2022-10-16T05:00:26;11.80;99.90
31271;DHT22;17904;47.420;9.310;2022-10-16T05:02:53;11.70;99.90
31271;DHT22;17904;47.420;9.310;2022-10-16T05:05:20;11.70;99.90
31271;DHT22;17904;47.420;9.310;2022-10-16T05:07:47;11.70;99.90
31271;DHT22;17904;47.420;9.310;2022-10-16T05:10:16;11.70;99.90
31271;DHT22;17904;47.420;9.310;2022-10-16T05:12:43;11.70;99.90
31271;DHT22;17904;47.420;9.310;2022-10-16T05:15:10;11.60;99.90
31271;DHT22;17904;47.420;9.310;2022-10-16T05:17:37;11.60;99.90
31271;DHT22;17904;47.420;9.310;2022-10-16T05:20:10;11.70;99.90
31271;DHT22;17904;47.420;9.310;2022-10-16T05:22:37;11.70;99.90
31271;DHT22;17904;47.420;9.310;2022-10-16T05:25:04;11.70;99.90
31271;DHT22;17904;47.420;9.310;2022-10-16T05:27:31;11.70;99.90
31271;DHT22;17904;47.420;9.310;2022-10-16T05:29:57;11.70;99.90
31271;DHT22;17904;47.420;9.310;2022-10-16T05:32:24;11.70;99.90
31271;DHT22;17904;47.420;9.310;2022-10-16T05:34:51;11.70;99.90
31271;DHT22;17904;47.420;9.310;2022-10-16T05:37:18;11.80;99.90
31271;DHT22;17904;47.420;9.310;2022-10-16T05:39:45;11.80;99.90
31271;DHT22;17904;47.420;9.310;2022-10-16T05:42:12;11.90;99.90
31271;DHT22;17904;47.420;9.310;2022-10-16T05:44:38;11.90;99.90
31271;DHT22;17904;47.420;9.310;2022-10-16T05:47:05;11.90;99.90
31271;DHT22;17904;47.420;9.310;2022-10-16T05:49:32;11.90;99.90
31271;DHT22;17904;47.420;9.310;2022-10-16T05:52:04;11.90;99.90
31271;DHT22;17904;47.420;9.310;2022-10-16T05:54:31;11.90;99.90
31271;DHT22;17904;47.420;9.310;2022-10-16T05:56:58;12.00;99.90
31271;DHT22;17904;47.420;9.310;2022-10-16T05:59:25;12.10;99.90
31271;DHT22;17904;47.420;9.310;2022-10-16T06:01:51;12.20;99.90
31271;DHT22;17904;47.420;9.310;2022-10-16T06:04:20;12.30;99.90
31271;DHT22;17904;47.420;9.310;2022-10-16T06:06:46;12.30;99.90
31271;DHT22;17904;47.420;9.310;2022-10-16T06:09:13;12.30;99.90
31271;DHT22;17904;47.420;9.310;2022-10-16T06:11:39;12.30;99.90
31271;DHT22;17904;47.420;9.310;2022-10-16T06:14:08;12.20;99.90
31271;DHT22;17904;47.420;9.310;2022-10-16T06:16:36;12.30;99.90
31271;DHT22;17904;47.420;9.310;2022-10-16T06:19:03;12.30;99.90
31271;DHT22;17904;47.420;9.310;2022-10-16T06:21:33;12.30;99.90
31271;DHT22;17904;47.420;9.310;2022-10-16T06:24:00;12.30;99.90
31271;DHT22;17904;47.420;9.310;2022-10-16T06:26:29;12.30;99.90
31271;DHT22;17904;47.420;9.310;2022-10-16T06:28:57;12.40;99.90
31271;DHT22;17904;47.420;9.310;2022-10-16T06:31:25;12.40;99.90
31271;DHT22;17904;47.420;9.310;2022-10-16T06:33:54;12.50;99.90
31271;DHT22;17904;47.420;9.310;2022-10-16T06:36:22;12.50;99.90
31271;DHT22;17904;47.420;9.310;2022-10-16T06:38:49;12.60;99.90
31271;DHT22;17904;47.420;9.310;2022-10-16T06:41:21;12.60;99.90
31271;DHT22;17904;47.420;9.310;2022-10-16T06:43:48;12.70;99.90
31271;DHT22;17904;47.420;9.310;2022-10-16T06:46:16;12.80;99.90
31271;DHT22;17904;47.420;9.310;2022-10-16T06:48:43;12.90;99.90
31271;DHT22;17904;47.420;9.310;2022-10-16T06:51:12;12.90;99.90
31271;DHT22;17904;47.420;9.310;2022-10-16T06:53:42;13.00;99.90
31271;DHT22;17904;47.420;9.310;2022-10-16T06:56:28;13.00;99.90
31271;DHT22;17904;47.420;9.310;2022-10-16T06:58:57;13.10;99.90
31271;DHT22;17904;47.420;9.310;2022-10-16T07:01:24;13.20;99.90
31271;DHT22;17904;47.420;9.310;2022-10-16T07:03:52;13.30;99.90
31271;DHT22;17904;47.420;9.310;2022-10-16T07:06:21;13.40;99.90
31271;DHT22;17904;47.420;9.310;2022-10-16T07:08:48;13.40;99.90
31271;DHT22;17904;47.420;9.310;2022-10-16T07:11:17;13.50;99.90
31271;DHT22;17904;47.420;9.310;2022-10-16T07:13:45;13.60;99.90
31271;DHT22;17904;47.420;9.310;2022-10-16T07:16:22;13.70;99.90
31271;DHT22;17904;47.420;9.310;2022-10-16T07:18:49;13.70;99.90
31271;DHT22;17904;47.420;9.310;2022-10-16T07:21:22;13.80;99.90
31271;DHT22;17904;47.420;9.310;2022-10-16T07:23:54;13.80;99.90
31271;DHT22;17904;47.420;9.310;2022-10-16T07:26:22;13.90;99.90
31271;DHT22;17904;47.420;9.310;2022-10-16T07:28:49;14.00;99.90
31271;DHT22;17904;47.420;9.310;2022-10-16T07:31:18;14.00;99.90
31271;DHT22;17904;47.420;9.310;2022-10-16T07:33:46;14.10;99.90
31271;DHT22;17904;47.420;9.310;2022-10-16T07:36:18;14.10;99.90
31271;DHT22;17904;47.420;9.310;2022-10-16T07:38:46;14.20;99.90
31271;DHT22;17904;47.420;9.310;2022-10-16T07:41:15;14.20;99.90
31271;DHT22;17904;47.420;9.310;2022-10-16T07:43:47;14.30;99.90
31271;DHT22;17904;47.420;9.310;2022-10-16T07:46:14;14.30;99.90
31271;DHT22;17904;47.420;9.310;2022-10-16T07:48:41;14.40;99.90
31271;DHT22;17904;47.420;9.310;2022-10-16T07:51:13;14.40;99.90
31271;DHT22;17904;47.420;9.310;2022-10-16T07:53:40;14.50;99.90
31271;DHT22;17904;47.420;9.310;2022-10-16T07:56:08;14.60;99.90
31271;DHT22;17904;47.420;9.310;2022-10-16T07:58:35;14.60;99.90
31271;DHT22;17904;47.420;9.310;2022-10-16T08:01:06;14.70;99.90
31271;DHT22;17904;47.420;9.310;2022-10-16T08:03:34;14.80;99.90
31271;DHT22;17904;47.420;9.310;2022-10-16T08:06:02;14.90;99.90
31271;DHT22;17904;47.420;9.310;2022-10-16T08:08:30;14.90;99.90
31271;DHT22;17904;47.420;9.310;2022-10-16T08:10:56;15.00;99.90
31271;DHT22;17904;47.420;9.310;2022-10-16T08:13:23;15.10;99.90
31271;DHT22;17904;47.420;9.310;2022-10-16T08:15:50;15.20;99.90
31271;DHT22;17904;47.420;9.310;2022-10-16T08:18:17;15.20;99.90
31271;DHT22;17904;47.420;9.310;2022-10-16T08:20:44;15.20;99.90
31271;DHT22;17904;47.420;9.310;2022-10-16T08:23:11;15.30;99.90
31271;DHT22;17904;47.420;9.310;2022-10-16T08:25:39;15.30;99.90
31271;DHT22;17904;47.420;9.310;2022-10-16T08:28:08;15.40;99.90
31271;DHT22;17904;47.420;9.310;2022-10-16T08:30:35;15.90;99.90
31271;DHT22;17904;47.420;9.310;2022-10-16T08:33:03;16.50;99.90
31271;DHT22;17904;47.420;9.310;2022-10-16T08:35:30;17.20;99.90
31271;DHT22;17904;47.420;9.310;2022-10-16T08:37:57;17.90;99.90
31271;DHT22;17904;47.420;9.310;2022-10-16T08:40:24;18.60;99.90
31271;DHT22;17904;47.420;9.310;2022-10-16T08:51:09;21.40;99.90
31271;DHT22;17904;47.420;9.310;2022-10-16T08:53:56;21.90;99.50
31271;DHT22;17904;47.420;9.310;2022-10-16T08:56:25;22.40;91.60
31271;DHT22;17904;47.420;9.310;2022-10-16T08:58:53;22.80;91.30
31271;DHT22;17904;47.420;9.310;2022-10-16T09:01:40;23.20;92.40
31271;DHT22;17904;47.420;9.310;2022-10-16T09:12:33;24.60;72.40
31271;DHT22;17904;47.420;9.310;2022-10-16T09:25:43;26.00;59.80
31271;DHT22;17904;47.420;9.310;2022-10-16T09:28:11;26.30;61.10
31271;DHT22;17904;47.420;9.310;2022-10-16T09:30:38;26.40;59.30
31271;DHT22;17904;47.420;9.310;2022-10-16T09:33:08;26.60;60.70
31271;DHT22;17904;47.420;9.310;2022-10-16T09:38:05;26.90;56.80
31271;DHT22;17904;47.420;9.310;2022-10-16T09:40:39;27.00;52.80
31271;DHT22;17904;47.420;9.310;2022-10-16T09:43:26;27.10;54.70
31271;DHT22;17904;47.420;9.310;2022-10-16T09:46:02;27.20;52.00
31271;DHT22;17904;47.420;9.310;2022-10-16T09:48:38;27.30;51.40
31271;DHT22;17904;47.420;9.310;2022-10-16T09:51:18;27.40;51.50
31271;DHT22;17904;47.420;9.310;2022-10-16T09:53:46;27.50;52.30
31271;DHT22;17904;47.420;9.310;2022-10-16T09:56:31;27.60;53.50
31271;DHT22;17904;47.420;9.310;2022-10-16T09:59:19;27.70;53.10
31271;DHT22;17904;47.420;9.310;2022-10-16T10:01:50;27.80;52.60
31271;DHT22;17904;47.420;9.310;2022-10-16T10:04:19;27.80;52.40
31271;DHT22;17904;47.420;9.310;2022-10-16T10:09:19;27.80;53.20
31271;DHT22;17904;47.420;9.310;2022-10-16T10:11:58;28.00;54.40
31271;DHT22;17904;47.420;9.310;2022-10-16T10:14:38;28.20;55.30
31271;DHT22;17904;47.420;9.310;2022-10-16T10:17:09;28.30;54.00
31271;DHT22;17904;47.420;9.310;2022-10-16T10:22:19;28.40;54.70
31271;DHT22;17904;47.420;9.310;2022-10-16T10:24:57;28.40;54.80
31271;DHT22;17904;47.420;9.310;2022-10-16T10:28:10;28.50;53.30
31271;DHT22;17904;47.420;9.310;2022-10-16T10:36:36;29.20;52.30
31271;DHT22;17904;47.420;9.310;2022-10-16T10:42:08;29.20;51.60
31271;DHT22;17904;47.420;9.310;2022-10-16T10:58:27;29.30;52.30
31271;DHT22;17904;47.420;9.310;2022-10-16T11:01:16;29.20;52.10
31271;DHT22;17904;47.420;9.310;2022-10-16T11:09:00;29.10;52.30
31271;DHT22;17904;47.420;9.310;2022-10-16T11:11:36;29.20;52.10
31271;DHT22;17904;47.420;9.310;2022-10-16T11:17:19;29.30;50.90
31271;DHT22;17904;47.420;9.310;2022-10-16T11:20:02;29.50;50.30
31271;DHT22;17904;47.420;9.310;2022-10-16T11:22:37;29.60;50.10
31271;DHT22;17904;47.420;9.310;2022-10-16T11:25:31;29.70;49.60
31271;DHT22;17904;47.420;9.310;2022-10-16T11:28:15;29.70;48.40
31271;DHT22;17904;47.420;9.310;2022-10-16T11:36:18;29.70;50.40
31271;DHT22;17904;47.420;9.310;2022-10-16T11:41:51;29.70;50.00
31271;DHT22;17904;47.420;9.310;2022-10-16T11:44:51;29.80;49.40
31271;DHT22;17904;47.420;9.310;2022-10-16T11:50:20;29.70;49.40
31271;DHT22;17904;47.420;9.310;2022-10-16T11:52:57;29.70;48.10
31271;DHT22;17904;47.420;9.310;2022-10-16T11:55:31;29.60;47.90
31271;DHT22;17904;47.420;9.310;2022-10-16T11:58:05;29.50;47.40
31271;DHT22;17904;47.420;9.310;2022-10-16T12:01:02;29.50;46.90
31271;DHT22;17904;47.420;9.310;2022-10-16T12:03:44;29.60;46.90
31271;DHT22;17904;47.420;9.310;2022-10-16T12:06:33;29.60;47.50
31271;DHT22;17904;47.420;9.310;2022-10-16T12:09:03;29.70;46.40
31271;DHT22;17904;47.420;9.310;2022-10-16T12:11:35;29.70;45.40
31271;DHT22;17904;47.420;9.310;2022-10-16T12:16:51;29.60;47.10
31271;DHT22;17904;47.420;9.310;2022-10-16T12:19:19;29.50;47.00
31271;DHT22;17904;47.420;9.310;2022-10-16T12:21:46;29.40;46.20
31271;DHT22;17904;47.420;9.310;2022-10-16T12:26:57;29.10;46.30
31271;DHT22;17904;47.420;9.310;2022-10-16T12:29:35;29.00;45.20
31271;DHT22;17904;47.420;9.310;2022-10-16T12:32:04;29.00;46.10
31271;DHT22;17904;47.420;9.310;2022-10-16T12:34:38;29.00;45.70
31271;DHT22;17904;47.420;9.310;2022-10-16T12:37:20;29.00;45.30
31271;DHT22;17904;47.420;9.310;2022-10-16T12:39:48;29.00;45.70
31271;DHT22;17904;47.420;9.310;2022-10-16T12:44:54;28.80;45.10
31271;DHT22;17904;47.420;9.310;2022-10-16T12:47:38;28.70;45.90
31271;DHT22;17904;47.420;9.310;2022-10-16T12:50:42;28.70;45.20
31271;DHT22;17904;47.420;9.310;2022-10-16T12:53:24;28.50;43.90
31271;DHT22;17904;47.420;9.310;2022-10-16T12:56:09;28.40;44.50
31271;DHT22;17904;47.420;9.310;2022-10-16T13:01:37;28.30;44.80
31271;DHT22;17904;47.420;9.310;2022-10-16T13:04:31;28.10;46.00
31271;DHT22;17904;47.420;9.310;2022-10-16T13:09:45;27.80;44.80
31271;DHT22;17904;47.420;9.310;2022-10-16T13:15:08;27.20;47.20
31271;DHT22;17904;47.420;9.310;2022-10-16T13:20:40;26.50;48.20
31271;DHT22;17904;47.420;9.310;2022-10-16T13:23:27;26.20;49.50
31271;DHT22;17904;47.420;9.310;2022-10-16T13:26:09;25.90;48.60
31271;DHT22;17904;47.420;9.310;2022-10-16T13:28:39;25.70;50.90
31271;DHT22;17904;47.420;9.310;2022-10-16T13:31:16;25.40;49.60
31271;DHT22;17904;47.420;9.310;2022-10-16T13:33:47;25.20;50.60
31271;DHT22;17904;47.420;9.310;2022-10-16T13:36:26;24.90;51.20
31271;DHT22;17904;47.420;9.310;2022-10-16T13:39:14;24.80;53.40
31271;DHT22;17904;47.420;9.310;2022-10-16T13:41:44;25.00;53.20
31271;DHT22;17904;47.420;9.310;2022-10-16T13:44:18;25.20;52.20
31271;DHT22;17904;47.420;9.310;2022-10-16T13:46:46;25.30;51.70
31271;DHT22;17904;47.420;9.310;2022-10-16T13:49:16;25.50;51.00
31271;DHT22;17904;47.420;9.310;2022-10-16T13:51:57;25.50;49.70
31271;DHT22;17904;47.420;9.310;2022-10-16T13:54:25;25.60;50.40
31271;DHT22;17904;47.420;9.310;2022-10-16T13:56:53;25.80;50.00
31271;DHT22;17904;47.420;9.310;2022-10-16T13:59:36;25.80;49.00
31271;DHT22;17904;47.420;9.310;2022-10-16T14:02:22;25.90;49.00
31271;DHT22;17904;47.420;9.310;2022-10-16T14:04:51;25.90;48.50
31271;DHT22;17904;47.420;9.310;2022-10-16T14:07:31;25.90;50.20
31271;DHT22;17904;47.420;9.310;2022-10-16T14:10:18;25.90;50.40
31271;DHT22;17904;47.420;9.310;2022-10-16T14:12:58;25.90;50.50
31271;DHT22;17904;47.420;9.310;2022-10-16T14:15:25;25.70;50.30
31271;DHT22;17904;47.420;9.310;2022-10-16T14:17:53;25.60;51.00
31271;DHT22;17904;47.420;9.310;2022-10-16T14:20:25;25.50;51.80
31271;DHT22;17904;47.420;9.310;2022-10-16T14:25:52;25.50;52.90
31271;DHT22;17904;47.420;9.310;2022-10-16T14:28:22;25.60;51.70
31271;DHT22;17904;47.420;9.310;2022-10-16T14:30:53;25.60;52.40
31271;DHT22;17904;47.420;9.310;2022-10-16T14:36:06;25.30;52.10
31271;DHT22;17904;47.420;9.310;2022-10-16T14:38:38;25.30;51.20
31271;DHT22;17904;47.420;9.310;2022-10-16T14:41:06;25.30;51.60
31271;DHT22;17904;47.420;9.310;2022-10-16T14:43:38;25.30;51.80
31271;DHT22;17904;47.420;9.310;2022-10-16T14:46:17;25.40;51.70
31271;DHT22;17904;47.420;9.310;2022-10-16T14:48:49;25.40;51.60
31271;DHT22;17904;47.420;9.310;2022-10-16T14:51:18;25.30;51.70
31271;DHT22;17904;47.420;9.310;2022-10-16T14:53:46;25.20;51.00
31271;DHT22;17904;47.420;9.310;2022-10-16T14:56:21;25.00;51.30
31271;DHT22;17904;47.420;9.310;2022-10-16T14:58:50;24.90;52.50
31271;DHT22;17904;47.420;9.310;2022-10-16T15:01:17;24.70;52.20
31271;DHT22;17904;47.420;9.310;2022-10-16T15:03:44;24.50;52.90
31271;DHT22;17904;47.420;9.310;2022-10-16T15:06:13;24.20;53.00
31271;DHT22;17904;47.420;9.310;2022-10-16T15:08:40;23.80;53.70
31271;DHT22;17904;47.420;9.310;2022-10-16T15:11:16;23.50;54.50
31271;DHT22;17904;47.420;9.310;2022-10-16T15:13:43;23.10;55.70
31271;DHT22;17904;47.420;9.310;2022-10-16T15:16:15;22.80;56.30
31271;DHT22;17904;47.420;9.310;2022-10-16T15:18:43;22.40;56.30
31271;DHT22;17904;47.420;9.310;2022-10-16T15:21:30;22.00;58.10
31271;DHT22;17904;47.420;9.310;2022-10-16T15:23:59;21.60;58.60
31271;DHT22;17904;47.420;9.310;2022-10-16T15:26:27;21.30;59.20
31271;DHT22;17904;47.420;9.310;2022-10-16T15:28:55;20.90;60.00
31271;DHT22;17904;47.420;9.310;2022-10-16T15:31:23;20.60;61.10
31271;DHT22;17904;47.420;9.310;2022-10-16T15:33:51;20.40;62.20
31271;DHT22;17904;47.420;9.310;2022-10-16T15:36:31;20.20;62.50
31271;DHT22;17904;47.420;9.310;2022-10-16T15:39:00;20.00;64.90
31271;DHT22;17904;47.420;9.310;2022-10-16T15:41:27;19.80;65.50
31271;DHT22;17904;47.420;9.310;2022-10-16T15:43:53;19.60;67.50
31271;DHT22;17904;47.420;9.310;2022-10-16T15:46:22;19.40;70.20
31271;DHT22;17904;47.420;9.310;2022-10-16T15:48:50;19.20;72.20
31271;DHT22;17904;47.420;9.310;2022-10-16T15:51:18;19.00;73.80
31271;DHT22;17904;47.420;9.310;2022-10-16T15:53:45;19.00;76.50
31271;DHT22;17904;47.420;9.310;2022-10-16T15:56:13;18.90;79.70
31271;DHT22;17904;47.420;9.310;2022-10-16T15:58:42;18.80;83.60
31271;DHT22;17904;47.420;9.310;2022-10-16T16:01:09;18.70;88.30
31271;DHT22;17904;47.420;9.310;2022-10-16T16:03:38;18.60;91.50
31271;DHT22;17904;47.420;9.310;2022-10-16T16:06:11;18.50;93.90
31271;DHT22;17904;47.420;9.310;2022-10-16T16:08:38;18.40;95.10
31271;DHT22;17904;47.420;9.310;2022-10-16T16:11:08;18.30;95.60
31271;DHT22;17904;47.420;9.310;2022-10-16T16:13:36;18.20;97.90
31271;DHT22;17904;47.420;9.310;2022-10-16T16:16:11;18.10;99.90
31271;DHT22;17904;47.420;9.310;2022-10-16T16:18:39;17.90;99.90
31271;DHT22;17904;47.420;9.310;2022-10-16T16:21:05;17.70;99.90
31271;DHT22;17904;47.420;9.310;2022-10-16T16:23:32;17.60;99.90
31271;DHT22;17904;47.420;9.310;2022-10-16T16:28:53;17.40;99.90
31271;DHT22;17904;47.420;9.310;2022-10-16T16:31:24;17.30;99.90
31271;DHT22;17904;47.420;9.310;2022-10-16T16:33:51;17.30;99.90
31271;DHT22;17904;47.420;9.310;2022-10-16T16:36:18;17.20;99.90
31271;DHT22;17904;47.420;9.310;2022-10-16T16:38:46;17.20;99.90
31271;DHT22;17904;47.420;9.310;2022-10-16T16:41:23;17.10;99.90
31271;DHT22;17904;47.420;9.310;2022-10-16T16:43:52;17.00;99.90
31271;DHT22;17904;47.420;9.310;2022-10-16T16:46:20;16.90;99.90
31271;DHT22;17904;47.420;9.310;2022-10-16T16:48:47;16.80;99.90
31271;DHT22;17904;47.420;9.310;2022-10-16T16:51:17;16.70;99.90
31271;DHT22;17904;47.420;9.310;2022-10-16T16:53:48;16.60;99.90
31271;DHT22;17904;47.420;9.310;2022-10-16T16:56:16;16.50;99.90
31271;DHT22;17904;47.420;9.310;2022-10-16T16:58:50;16.50;99.90
31271;DHT22;17904;47.420;9.310;2022-10-16T17:01:17;16.40;99.90
31271;DHT22;17904;47.420;9.310;2022-10-16T17:03:48;16.40;99.90
31271;DHT22;17904;47.420;9.310;2022-10-16T17:06:18;16.30;99.90
31271;DHT22;17904;47.420;9.310;2022-10-16T17:08:47;16.30;99.90
31271;DHT22;17904;47.420;9.310;2022-10-16T17:11:17;16.20;99.90
31271;DHT22;17904;47.420;9.310;2022-10-16T17:13:44;16.20;99.90
31271;DHT22;17904;47.420;9.310;2022-10-16T17:16:11;16.10;99.90
31271;DHT22;17904;47.420;9.310;2022-10-16T17:18:38;16.10;99.90
31271;DHT22;17904;47.420;9.310;2022-10-16T17:21:07;16.00;99.90
31271;DHT22;17904;47.420;9.310;2022-10-16T17:23:35;16.00;99.90
31271;DHT22;17904;47.420;9.310;2022-10-16T17:26:11;15.90;99.90
31271;DHT22;17904;47.420;9.310;2022-10-16T17:28:38;15.90;99.90
31271;DHT22;17904;47.420;9.310;2022-10-16T17:31:11;15.80;99.90
31271;DHT22;17904;47.420;9.310;2022-10-16T17:33:39;15.80;99.90
31271;DHT22;17904;47.420;9.310;2022-10-16T17:36:06;15.70;99.90
31271;DHT22;17904;47.420;9.310;2022-10-16T17:38:34;15.70;99.90
31271;DHT22;17904;47.420;9.310;2022-10-16T17:41:27;15.60;99.90
31271;DHT22;17904;47.420;9.310;2022-10-16T17:43:54;15.60;99.90
31271;DHT22;17904;47.420;9.310;2022-10-16T17:46:22;15.60;99.90
31271;DHT22;17904;47.420;9.310;2022-10-16T17:48:51;15.50;99.90
31271;DHT22;17904;47.420;9.310;2022-10-16T17:51:25;15.50;99.90
31271;DHT22;17904;47.420;9.310;2022-10-16T17:53:55;15.40;99.90